Time;durP1;ratioP1;P1;durP2;ratioP2;P2;SDS_P1;SDS_P2;PMS_P1;PMS_P2;Temp;Humidity;BMP_temperature;BMP_pressure;BME280_temperature;BME280_humidity;BME280_pressure;Samples;Min_cycle;Max_cycle;Signal;HPM_P1;HPM_P2
2021/09/08 00:02:20;;;;;;;12.40;11.35;;;20.30;70.80;;;;;;5042970;28;20197;-88
2021/09/08 00:04:46;;;;;;;11.82;10.80;;;20.30;70.60;;;;;;5041779;28;20197;-88
2021/09/08 00:07:12;;;;;;;11.43;10.43;;;20.40;70.10;;;;;;5042398;28;20198;-89
2021/09/08 00:09:38;;;;;;;12.45;11.45;;;20.40;70.00;;;;;;5026241;28;20247;-88
2021/09/08 00:12:04;;;;;;;11.82;10.88;;;20.40;70.50;;;;;;5043289;28;20197;-88
2021/09/08 00:14:30;;;;;;;11.98;10.88;;;20.30;70.70;;;;;;5040571;28;20202;-88
2021/09/08 00:16:56;;;;;;;11.25;10.20;;;20.20;70.50;;;;;;5060981;28;20230;-88
2021/09/08 00:19:22;;;;;;;11.85;10.60;;;20.20;70.60;;;;;;5044928;28;20215;-89
2021/09/08 00:21:48;;;;;;;11.90;10.90;;;20.20;70.50;;;;;;5042732;28;20253;-89
2021/09/08 00:24:13;;;;;;;11.55;10.60;;;20.20;70.20;;;;;;5040204;28;20501;-89
2021/09/08 00:26:39;;;;;;;10.90;9.98;;;20.10;70.80;;;;;;5026481;28;20198;-89
2021/09/08 00:29:05;;;;;;;11.32;10.43;;;20.10;70.80;;;;;;5033962;28;20191;-89
2021/09/08 00:31:31;;;;;;;11.43;10.52;;;20.10;70.70;;;;;;5034939;28;20197;-89
2021/09/08 00:33:57;;;;;;;10.68;9.88;;;20.20;69.90;;;;;;5044844;28;20224;-89
2021/09/08 00:36:23;;;;;;;11.10;10.10;;;20.20;70.00;;;;;;5048958;28;20228;-89
2021/09/08 00:38:48;;;;;;;10.82;9.93;;;20.20;69.80;;;;;;5039346;28;20214;-89
2021/09/08 00:41:14;;;;;;;11.43;10.52;;;20.30;69.70;;;;;;5044154;28;20631;-89
2021/09/08 00:43:40;;;;;;;11.27;10.27;;;20.20;69.70;;;;;;5044884;28;20183;-89
2021/09/08 00:46:06;;;;;;;10.88;10.07;;;20.20;70.00;;;;;;5041932;28;20220;-89
2021/09/08 00:48:32;;;;;;;10.80;9.82;;;20.10;69.80;;;;;;5039899;28;20197;-89
2021/09/08 00:50:58;;;;;;;10.93;9.95;;;20.10;69.90;;;;;;5056993;28;20249;-89
2021/09/08 00:53:24;;;;;;;11.50;10.25;;;20.00;69.80;;;;;;5055821;28;20276;-88
2021/09/08 00:55:51;;;;;;;10.73;9.73;;;19.90;70.00;;;;;;5040433;28;20220;-89
2021/09/08 00:58:17;;;;;;;10.60;9.60;;;20.00;70.10;;;;;;5039891;28;20210;-89
2021/09/08 01:00:43;;;;;;;11.43;10.50;;;19.90;70.20;;;;;;5032658;28;20243;-89
2021/09/08 01:03:09;;;;;;;11.60;10.60;;;19.80;70.00;;;;;;5033524;28;20191;-89
2021/09/08 01:05:35;;;;;;;11.77;10.70;;;19.80;70.40;;;;;;5024001;28;20300;-89
2021/09/08 01:08:01;;;;;;;10.65;9.65;;;19.80;70.20;;;;;;5039206;28;20644;-89
2021/09/08 01:10:28;;;;;;;11.20;10.10;;;19.80;70.00;;;;;;5037427;28;20197;-89
2021/09/08 01:12:54;;;;;;;12.20;11.15;;;19.70;70.70;;;;;;5039200;28;20192;-89
2021/09/08 01:15:20;;;;;;;13.07;11.88;;;19.60;71.30;;;;;;5037680;28;20210;-89
2021/09/08 01:17:46;;;;;;;13.77;12.45;;;19.60;71.50;;;;;;5020558;28;20856;-89
2021/09/08 01:20:13;;;;;;;12.23;11.13;;;19.50;72.20;;;;;;5037377;28;20189;-89
2021/09/08 01:22:47;;;;;;;12.57;11.45;;;19.40;72.20;;;;;;5037562;28;20189;-89
2021/09/08 01:25:19;;;;;;;12.95;11.85;;;19.40;72.80;;;;;;5026838;28;20616;-89
2021/09/08 01:27:46;;;;;;;13.18;12.02;;;19.30;73.30;;;;;;5032037;28;20262;-89
2021/09/08 01:30:15;;;;;;;12.60;11.50;;;19.20;73.50;;;;;;5014986;28;20677;-88
2021/09/08 01:32:41;;;;;;;13.95;12.60;;;19.20;73.60;;;;;;5060692;28;20170;-87
2021/09/08 01:35:07;;;;;;;11.95;10.85;;;19.20;73.70;;;;;;5050154;28;20260;-88
2021/09/08 01:37:33;;;;;;;12.35;11.27;;;19.30;73.50;;;;;;5038435;28;20204;-88
2021/09/08 01:39:59;;;;;;;13.35;12.32;;;19.40;73.10;;;;;;5021778;28;20204;-89
2021/09/08 01:42:25;;;;;;;12.13;11.13;;;19.60;72.60;;;;;;5030031;28;20202;-90
2021/09/08 01:44:51;;;;;;;12.85;11.75;;;19.50;72.80;;;;;;5028474;28;20704;-88
2021/09/08 01:47:17;;;;;;;13.93;12.82;;;19.50;72.70;;;;;;5037220;28;20560;-89
2021/09/08 01:49:43;;;;;;;12.95;11.82;;;19.40;73.20;;;;;;5036382;28;20185;-89
2021/09/08 01:52:09;;;;;;;13.38;12.23;;;19.40;73.20;;;;;;5033470;28;20215;-89
2021/09/08 01:54:35;;;;;;;14.13;12.82;;;19.40;73.20;;;;;;5023176;28;20217;-89
2021/09/08 01:57:00;;;;;;;13.60;12.43;;;19.40;73.10;;;;;;5023460;28;20716;-89
2021/09/08 01:59:26;;;;;;;13.68;12.48;;;19.20;73.60;;;;;;5015425;28;20284;-89
2021/09/08 02:01:52;;;;;;;13.20;12.07;;;19.30;74.50;;;;;;5053112;28;20193;-89
2021/09/08 02:04:17;;;;;;;13.38;12.07;;;19.20;73.80;;;;;;5038239;28;20724;-89
2021/09/08 02:06:52;;;;;;;13.20;11.90;;;19.10;74.00;;;;;;5037840;28;20216;-89
2021/09/08 02:09:19;;;;;;;13.43;12.13;;;19.10;74.10;;;;;;5037870;28;20271;-88
2021/09/08 02:11:45;;;;;;;12.98;12.00;;;19.10;74.00;;;;;;5020362;28;20201;-89
2021/09/08 02:14:11;;;;;;;13.45;12.20;;;19.20;73.70;;;;;;5034472;28;20200;-89
2021/09/08 02:16:37;;;;;;;14.77;13.45;;;19.30;73.60;;;;;;5036629;28;20320;-89
2021/09/08 02:19:03;;;;;;;13.73;12.63;;;19.30;73.00;;;;;;5036811;28;20224;-88
2021/09/08 02:21:29;;;;;;;14.88;13.57;;;19.10;73.50;;;;;;5034981;28;20535;-89
2021/09/08 02:23:56;;;;;;;14.25;12.82;;;19.10;73.50;;;;;;5033027;28;20217;-89
2021/09/08 02:26:22;;;;;;;14.75;13.25;;;19.10;73.80;;;;;;5023714;28;20264;-89
2021/09/08 02:28:48;;;;;;;14.32;13.05;;;18.90;74.30;;;;;;5037257;28;20250;-89
2021/09/08 02:31:14;;;;;;;13.35;12.25;;;18.80;75.00;;;;;;5034974;28;20246;-88
2021/09/08 02:33:40;;;;;;;13.52;12.27;;;18.80;74.90;;;;;;5036662;28;20282;-89
2021/09/08 02:36:06;;;;;;;14.05;12.65;;;18.80;75.00;;;;;;5053335;28;20228;-89
2021/09/08 02:38:32;;;;;;;14.25;12.95;;;19.00;74.50;;;;;;5039168;28;20677;-89
2021/09/08 02:41:00;;;;;;;14.98;13.70;;;19.00;74.00;;;;;;5037094;28;20194;-89
2021/09/08 02:43:29;;;;;;;14.70;13.40;;;19.00;73.90;;;;;;5038186;28;20252;-88
2021/09/08 02:45:54;;;;;;;14.77;13.48;;;18.80;74.50;;;;;;5052798;28;20247;-89
2021/09/08 02:48:20;;;;;;;14.38;12.93;;;18.70;74.90;;;;;;5036199;28;20798;-89
2021/09/08 02:50:46;;;;;;;13.80;12.50;;;18.80;74.80;;;;;;5031807;28;20188;-89
2021/09/08 02:53:12;;;;;;;13.48;12.30;;;18.70;75.20;;;;;;5035399;28;20181;-89
2021/09/08 02:55:37;;;;;;;12.95;11.95;;;18.90;74.60;;;;;;5052558;28;20931;-89
2021/09/08 02:58:03;;;;;;;13.50;12.30;;;18.90;74.60;;;;;;5035604;28;20321;-89
2021/09/08 03:00:29;;;;;;;14.35;13.05;;;19.00;73.90;;;;;;5057951;28;20189;-89
2021/09/08 03:02:54;;;;;;;14.25;13.05;;;19.00;73.60;;;;;;5036328;28;20192;-89
2021/09/08 03:05:20;;;;;;;13.00;11.80;;;18.90;74.10;;;;;;5031046;28;20235;-89
2021/09/08 03:07:46;;;;;;;14.02;12.82;;;18.80;74.50;;;;;;5021206;28;20196;-89
2021/09/08 03:10:12;;;;;;;14.90;13.60;;;18.70;74.50;;;;;;5034420;28;20463;-89
2021/09/08 03:12:38;;;;;;;13.57;12.43;;;18.70;74.40;;;;;;5031640;28;20207;-90
2021/09/08 03:15:05;;;;;;;14.32;13.00;;;18.70;74.50;;;;;;5035483;28;20212;-89
2021/09/08 03:17:31;;;;;;;13.38;12.18;;;18.70;74.60;;;;;;5035498;28;20215;-88
2021/09/08 03:19:57;;;;;;;14.82;13.55;;;18.70;74.30;;;;;;5030547;28;20287;-89
2021/09/08 03:22:22;;;;;;;14.32;13.13;;;18.60;74.50;;;;;;5016377;28;20234;-90
2021/09/08 03:24:48;;;;;;;13.95;12.75;;;18.50;75.30;;;;;;5051691;28;20192;-89
2021/09/08 03:27:14;;;;;;;13.63;12.43;;;18.30;75.80;;;;;;5036477;28;20997;-89
2021/09/08 03:29:40;;;;;;;14.15;12.90;;;18.10;76.90;;;;;;5049713;28;20197;-89
2021/09/08 03:32:06;;;;;;;15.35;13.80;;;18.10;77.00;;;;;;5037413;28;20287;-90
2021/09/08 03:34:32;;;;;;;14.97;13.50;;;17.90;77.50;;;;;;5039601;28;20758;-90
2021/09/08 03:36:57;;;;;;;14.52;13.27;;;17.80;77.90;;;;;;5035387;28;20706;-90
2021/09/08 03:39:23;;;;;;;14.80;13.32;;;17.70;78.40;;;;;;5021966;28;20249;-90
2021/09/08 03:41:49;;;;;;;15.10;13.70;;;17.70;78.40;;;;;;5039391;28;20217;-91
2021/09/08 03:44:14;;;;;;;14.63;13.40;;;17.50;79.10;;;;;;5033981;28;20887;-90
2021/09/08 03:46:40;;;;;;;14.37;13.07;;;17.30;79.80;;;;;;5026526;28;20297;-91
2021/09/08 03:49:06;;;;;;;15.97;13.70;;;17.40;79.80;;;;;;5051177;28;20202;-90
2021/09/08 03:51:31;;;;;;;16.00;14.60;;;17.40;79.90;;;;;;5040143;28;20222;-90
2021/09/08 03:54:00;;;;;;;15.77;14.27;;;17.20;80.60;;;;;;5038316;28;20198;-90
2021/09/08 03:56:26;;;;;;;15.90;14.47;;;17.10;81.90;;;;;;5038206;28;20241;-90
2021/09/08 03:58:55;;;;;;;15.93;14.40;;;17.00;81.40;;;;;;5036839;28;20676;-89
2021/09/08 04:01:20;;;;;;;15.43;14.03;;;17.00;81.00;;;;;;5037361;28;20696;-90
2021/09/08 04:03:47;;;;;;;15.97;14.47;;;16.90;81.80;;;;;;5053800;28;20192;-90
2021/09/08 04:06:13;;;;;;;15.70;14.37;;;16.90;82.10;;;;;;5022804;28;20205;-90
2021/09/08 04:08:39;;;;;;;17.23;15.63;;;16.80;82.70;;;;;;5037663;28;20260;-89
2021/09/08 04:11:05;;;;;;;16.60;15.00;;;16.80;82.70;;;;;;5037598;28;20222;-89
2021/09/08 04:13:31;;;;;;;17.27;15.47;;;16.70;83.20;;;;;;5038019;28;20199;-89
2021/09/08 04:15:56;;;;;;;16.40;15.00;;;16.70;83.30;;;;;;5053037;28;20215;-88
2021/09/08 04:18:22;;;;;;;16.77;15.17;;;16.50;83.80;;;;;;5037525;28;20217;-88
2021/09/08 04:20:48;;;;;;;16.70;15.10;;;16.50;83.70;;;;;;4995317;28;20182;-88
2021/09/08 04:23:14;;;;;;;17.07;15.37;;;16.50;84.90;;;;;;5027119;28;20582;-88
2021/09/08 04:25:41;;;;;;;15.80;14.23;;;16.50;84.40;;;;;;5010219;28;20217;-88
2021/09/08 04:28:07;;;;;;;16.70;15.30;;;16.50;84.50;;;;;;5022575;28;20198;-89
2021/09/08 04:30:33;;;;;;;16.70;15.20;;;16.40;84.60;;;;;;5035693;28;20219;-88
2021/09/08 04:32:58;;;;;;;16.27;14.80;;;16.20;85.20;;;;;;5037626;28;20208;-86
2021/09/08 04:35:24;;;;;;;15.63;14.17;;;16.20;85.40;;;;;;5042225;28;20219;-87
2021/09/08 04:37:50;;;;;;;17.80;16.00;;;16.30;85.30;;;;;;5023774;28;20299;-86
2021/09/08 04:40:16;;;;;;;16.47;15.00;;;16.30;85.20;;;;;;5030290;28;20208;-87
2021/09/08 04:42:42;;;;;;;16.77;15.17;;;16.40;84.80;;;;;;5029348;28;20217;-87
2021/09/08 04:45:08;;;;;;;16.87;15.33;;;16.40;84.50;;;;;;5039786;28;20212;-88
2021/09/08 04:47:34;;;;;;;17.83;15.50;;;16.40;84.50;;;;;;5040075;28;20560;-88
2021/09/08 04:50:00;;;;;;;16.87;15.27;;;16.30;84.60;;;;;;5037817;28;20215;-88
2021/09/08 04:52:26;;;;;;;17.23;15.70;;;16.20;85.00;;;;;;5053824;28;20227;-87
2021/09/08 04:54:51;;;;;;;16.27;14.87;;;16.30;84.60;;;;;;5041888;28;20200;-87
2021/09/08 04:57:17;;;;;;;17.30;15.67;;;16.20;85.20;;;;;;5031155;28;20565;-87
2021/09/08 04:59:43;;;;;;;16.67;15.17;;;16.20;85.00;;;;;;5040330;28;20262;-87
2021/09/08 05:02:09;;;;;;;16.60;15.03;;;16.20;84.90;;;;;;5039916;28;20193;-87
2021/09/08 05:04:34;;;;;;;16.47;14.90;;;16.20;85.00;;;;;;5043378;28;20257;-86
2021/09/08 05:07:00;;;;;;;16.37;14.77;;;16.20;85.10;;;;;;5041153;28;20225;-87
2021/09/08 05:09:26;;;;;;;15.47;13.83;;;16.10;86.00;;;;;;5040006;28;20207;-87
2021/09/08 05:11:52;;;;;;;16.33;14.77;;;16.20;85.20;;;;;;5038858;28;20486;-88
2021/09/08 05:14:18;;;;;;;15.87;14.37;;;16.10;85.40;;;;;;5040045;28;20204;-87
2021/09/08 05:16:44;;;;;;;16.30;14.57;;;16.10;85.80;;;;;;5040238;28;20244;-87
2021/09/08 05:19:10;;;;;;;17.83;14.63;;;16.00;86.20;;;;;;5042364;28;20226;-88
2021/09/08 05:21:36;;;;;;;17.40;15.30;;;16.10;86.10;;;;;;5022576;28;20193;-88
2021/09/08 05:24:03;;;;;;;16.17;14.63;;;16.10;86.10;;;;;;5074504;28;20211;-88
2021/09/08 05:26:29;;;;;;;16.50;14.97;;;16.10;86.10;;;;;;5011026;28;20231;-87
2021/09/08 05:28:54;;;;;;;17.90;15.37;;;16.10;86.20;;;;;;5038295;28;20212;-88
2021/09/08 05:31:22;;;;;;;17.47;15.67;;;16.10;85.90;;;;;;5040787;28;20593;-89
2021/09/08 05:33:51;;;;;;;16.43;14.73;;;16.10;86.10;;;;;;5036053;28;20198;-88
2021/09/08 05:36:17;;;;;;;15.23;13.83;;;16.00;86.20;;;;;;5026144;28;20316;-88
2021/09/08 05:38:45;;;;;;;16.03;14.40;;;16.00;86.70;;;;;;5021481;28;20391;-88
2021/09/08 05:41:12;;;;;;;17.60;15.33;;;16.00;86.90;;;;;;5015707;28;20576;-88
2021/09/08 05:43:40;;;;;;;16.87;15.03;;;16.10;86.80;;;;;;5019443;28;20211;-88
2021/09/08 05:46:07;;;;;;;16.87;15.10;;;16.00;86.90;;;;;;5033558;28;20193;-89
2021/09/08 05:48:35;;;;;;;16.63;15.03;;;16.20;86.60;;;;;;5033726;28;20198;-89
2021/09/08 05:51:01;;;;;;;17.60;15.50;;;16.20;86.30;;;;;;5003743;28;20223;-88
2021/09/08 05:53:28;;;;;;;17.03;15.43;;;16.20;86.00;;;;;;4999397;28;20195;-88
2021/09/08 05:55:56;;;;;;;17.00;15.27;;;16.20;85.90;;;;;;5005627;28;20215;-88
2021/09/08 05:58:23;;;;;;;15.60;14.00;;;16.20;86.10;;;;;;5038308;28;20334;-89
2021/09/08 06:00:50;;;;;;;15.63;14.23;;;16.40;85.50;;;;;;5020816;28;20218;-88
2021/09/08 06:03:17;;;;;;;16.93;15.20;;;16.40;85.20;;;;;;5038140;28;20749;-88
2021/09/08 06:05:44;;;;;;;17.60;15.73;;;16.50;85.20;;;;;;5020686;28;20290;-88
2021/09/08 06:08:10;;;;;;;16.03;14.43;;;16.50;84.90;;;;;;5031985;28;20822;-88
2021/09/08 06:10:37;;;;;;;15.47;14.07;;;16.50;84.80;;;;;;5035431;28;20200;-88
2021/09/08 06:13:04;;;;;;;17.37;15.67;;;16.60;84.50;;;;;;5020725;28;20325;-88
2021/09/08 06:15:32;;;;;;;16.43;14.80;;;16.60;84.60;;;;;;5022035;28;20307;-88
2021/09/08 06:18:02;;;;;;;16.77;14.90;;;16.60;84.30;;;;;;5001001;28;20208;-88
2021/09/08 06:20:29;;;;;;;18.07;16.20;;;16.70;84.20;;;;;;5025859;28;20200;-87
2021/09/08 06:22:55;;;;;;;16.63;14.37;;;16.80;83.90;;;;;;5021646;28;20299;-88
2021/09/08 06:25:21;;;;;;;18.27;14.80;;;16.90;83.80;;;;;;5053875;28;20208;-89
2021/09/08 06:27:47;;;;;;;16.47;14.57;;;17.00;83.30;;;;;;5038794;28;20343;-88
2021/09/08 06:30:13;;;;;;;17.87;14.43;;;17.00;82.80;;;;;;5041539;28;20378;-89
2021/09/08 06:32:39;;;;;;;21.17;15.33;;;17.10;82.70;;;;;;5037789;28;20193;-89
2021/09/08 06:35:05;;;;;;;16.63;15.03;;;17.10;82.80;;;;;;5040765;28;20290;-89
2021/09/08 06:37:31;;;;;;;16.63;14.77;;;17.00;83.00;;;;;;5043767;28;20223;-89
2021/09/08 06:39:57;;;;;;;16.27;14.57;;;17.10;83.00;;;;;;5040672;28;20613;-89
2021/09/08 06:42:22;;;;;;;16.90;14.93;;;17.00;83.00;;;;;;5054303;28;20200;-89
2021/09/08 06:44:52;;;;;;;15.00;13.70;;;17.10;82.80;;;;;;5037390;28;20200;-89
2021/09/08 06:47:19;;;;;;;16.00;14.50;;;17.20;82.80;;;;;;5038977;28;20183;-89
2021/09/08 06:49:45;;;;;;;18.30;14.53;;;17.30;82.20;;;;;;5034301;28;20231;-89
2021/09/08 06:52:11;;;;;;;16.40;14.73;;;17.30;82.10;;;;;;5037408;28;20204;-89
2021/09/08 06:54:37;;;;;;;15.40;13.93;;;17.40;81.80;;;;;;5022535;28;20226;-89
2021/09/08 06:57:03;;;;;;;16.37;14.77;;;17.50;82.10;;;;;;5048648;28;20238;-88
2021/09/08 06:59:29;;;;;;;18.27;14.43;;;17.60;80.90;;;;;;5041787;28;20243;-89
2021/09/08 07:01:54;;;;;;;15.00;13.60;;;17.60;81.00;;;;;;5043713;28;20201;-88
2021/09/08 07:04:20;;;;;;;16.57;14.97;;;17.70;80.40;;;;;;5024976;28;20205;-89
2021/09/08 07:06:46;;;;;;;15.97;14.37;;;17.70;80.30;;;;;;5032782;28;20215;-90
2021/09/08 07:09:12;;;;;;;17.27;15.50;;;17.80;80.20;;;;;;5028681;28;20204;-89
2021/09/08 07:11:41;;;;;;;15.90;14.40;;;17.90;80.10;;;;;;5036474;28;20308;-88
2021/09/08 07:14:11;;;;;;;15.40;13.93;;;17.90;80.30;;;;;;5002147;28;20210;-89
2021/09/08 07:16:38;;;;;;;16.03;14.60;;;18.10;80.20;;;;;;5016370;28;20230;-89
2021/09/08 07:19:05;;;;;;;15.53;13.93;;;18.20;79.90;;;;;;5039316;28;20205;-88
2021/09/08 07:21:34;;;;;;;14.73;13.30;;;18.40;79.50;;;;;;5022647;28;20216;-90
2021/09/08 07:24:01;;;;;;;13.43;12.13;;;18.50;79.00;;;;;;5000865;28;20205;-89
2021/09/08 07:26:33;;;;;;;14.02;12.60;;;18.60;78.40;;;;;;5036900;28;20213;-89
2021/09/08 07:29:00;;;;;;;16.77;13.15;;;18.80;75.50;;;;;;5039433;28;20201;-89
2021/09/08 07:31:27;;;;;;;13.63;12.40;;;18.90;74.00;;;;;;5036652;28;20215;-88
2021/09/08 07:33:56;;;;;;;15.60;13.20;;;19.10;73.40;;;;;;5034599;28;20251;-88
2021/09/08 07:36:24;;;;;;;13.82;12.48;;;19.20;72.70;;;;;;5020800;28;20237;-89
2021/09/08 07:38:51;;;;;;;14.93;13.50;;;19.40;72.10;;;;;;5019451;28;20212;-88
2021/09/08 07:41:21;;;;;;;13.15;11.85;;;19.50;70.90;;;;;;5018645;28;20190;-88
2021/09/08 07:43:50;;;;;;;15.43;13.82;;;19.60;71.20;;;;;;5031360;28;20262;-89
2021/09/08 07:46:17;;;;;;;15.82;13.43;;;19.70;70.80;;;;;;5025313;28;20565;-89
2021/09/08 07:48:43;;;;;;;14.30;13.00;;;19.80;70.60;;;;;;5049524;28;20192;-87
2021/09/08 07:51:10;;;;;;;15.50;12.45;;;19.90;70.80;;;;;;5048938;28;20193;-88
2021/09/08 07:53:36;;;;;;;13.35;12.15;;;19.90;70.30;;;;;;5013759;28;20320;-88
2021/09/08 07:56:02;;;;;;;14.25;12.57;;;20.00;70.10;;;;;;5042057;28;20512;-88
2021/09/08 07:58:30;;;;;;;14.23;12.88;;;20.10;70.00;;;;;;5029778;28;20212;-88
2021/09/08 08:00:57;;;;;;;14.35;12.40;;;20.20;69.80;;;;;;5018280;28;20193;-87
2021/09/08 08:03:24;;;;;;;13.98;12.77;;;20.20;69.80;;;;;;5033547;28;20200;-88
2021/09/08 08:05:50;;;;;;;12.52;11.23;;;20.30;70.20;;;;;;5026326;28;20272;-88
2021/09/08 08:08:16;;;;;;;12.93;11.85;;;20.40;69.70;;;;;;5027755;28;20220;-88
2021/09/08 08:10:42;;;;;;;12.15;11.15;;;20.50;69.80;;;;;;5034086;28;20262;-88
2021/09/08 08:13:08;;;;;;;13.32;12.02;;;20.60;68.90;;;;;;5015898;28;20204;-88
2021/09/08 08:15:34;;;;;;;12.43;11.35;;;20.80;68.50;;;;;;5031637;28;20583;-88
2021/09/08 08:17:59;;;;;;;12.13;11.02;;;20.90;67.20;;;;;;5032534;28;20209;-87
2021/09/08 08:20:25;;;;;;;12.25;11.15;;;21.00;64.30;;;;;;5029891;28;20697;-88
2021/09/08 08:22:52;;;;;;;12.15;11.00;;;21.10;63.30;;;;;;5034495;28;20758;-87
2021/09/08 08:25:20;;;;;;;12.40;11.23;;;21.30;61.40;;;;;;5036542;28;20231;-88
2021/09/08 08:27:47;;;;;;;13.45;11.00;;;21.30;62.40;;;;;;5030895;28;20639;-88
2021/09/08 08:30:15;;;;;;;11.30;10.20;;;21.50;61.10;;;;;;5033960;28;20186;-88
2021/09/08 08:32:42;;;;;;;12.00;10.98;;;21.60;60.90;;;;;;5034164;28;20196;-88
2021/09/08 08:35:08;;;;;;;12.02;10.93;;;21.70;60.20;;;;;;5037507;28;20212;-88
2021/09/08 08:37:35;;;;;;;11.82;10.82;;;21.70;60.10;;;;;;5050217;28;20211;-88
2021/09/08 08:40:03;;;;;;;12.45;11.25;;;21.90;60.00;;;;;;5035352;28;20195;-88
2021/09/08 08:42:30;;;;;;;12.18;11.20;;;22.00;59.50;;;;;;5034440;28;20220;-88
2021/09/08 08:44:56;;;;;;;11.60;10.60;;;22.20;58.80;;;;;;5025674;28;20188;-88
2021/09/08 08:47:23;;;;;;;12.73;11.52;;;22.30;58.80;;;;;;5035815;28;20190;-88
2021/09/08 08:49:50;;;;;;;12.07;11.00;;;22.40;56.60;;;;;;5032073;28;20188;-88
2021/09/08 08:52:16;;;;;;;11.95;10.75;;;22.50;57.00;;;;;;5033519;28;20235;-88
2021/09/08 08:54:43;;;;;;;13.77;10.40;;;22.50;57.80;;;;;;5036744;28;20184;-88
2021/09/08 08:57:10;;;;;;;11.13;10.07;;;22.70;57.30;;;;;;5034643;28;20768;-88
2021/09/08 08:59:38;;;;;;;11.05;9.98;;;22.80;57.20;;;;;;5037571;28;20208;-88
2021/09/08 09:02:19;;;;;;;11.43;10.43;;;23.00;55.90;;;;;;5035668;28;20192;-88
2021/09/08 09:04:46;;;;;;;11.38;10.27;;;23.10;55.00;;;;;;5032619;28;20342;-88
2021/09/08 09:07:22;;;;;;;10.95;9.93;;;23.20;54.50;;;;;;5030953;28;20193;-88
2021/09/08 09:09:59;;;;;;;12.93;10.52;;;23.30;53.80;;;;;;5034454;28;20188;-88
2021/09/08 09:12:28;;;;;;;11.50;10.35;;;23.50;52.80;;;;;;5029890;28;20203;-88
2021/09/08 09:14:58;;;;;;;11.35;10.35;;;23.60;52.20;;;;;;5027071;28;20200;-88
2021/09/08 09:17:29;;;;;;;13.52;10.02;;;23.70;52.00;;;;;;5036902;28;20176;-88
2021/09/08 09:19:56;;;;;;;12.85;9.88;;;23.90;51.30;;;;;;5029564;28;20276;-88
2021/09/08 09:22:33;;;;;;;10.82;9.73;;;24.00;49.60;;;;;;5040438;28;20193;-88
2021/09/08 09:24:59;;;;;;;12.13;10.80;;;24.20;49.60;;;;;;5045960;28;20443;-88
2021/09/08 09:27:27;;;;;;;10.35;9.55;;;24.30;49.80;;;;;;5033685;28;20281;-88
2021/09/08 09:30:01;;;;;;;10.70;9.80;;;24.50;50.00;;;;;;5037238;28;20661;-88
2021/09/08 09:32:39;;;;;;;10.15;9.30;;;24.60;48.60;;;;;;5047662;28;20207;-88
2021/09/08 09:35:07;;;;;;;10.38;9.48;;;24.70;47.80;;;;;;5034213;28;20204;-88
2021/09/08 09:37:34;;;;;;;10.40;9.50;;;24.80;47.60;;;;;;5034823;28;20181;-88
2021/09/08 09:40:04;;;;;;;9.88;8.98;;;24.90;46.10;;;;;;5015579;28;20197;-88
2021/09/08 09:42:33;;;;;;;10.52;9.63;;;25.00;46.10;;;;;;5032972;28;20676;-88
2021/09/08 09:45:03;;;;;;;10.77;9.75;;;25.10;45.40;;;;;;5035830;28;20187;-88
2021/09/08 09:47:33;;;;;;;10.32;9.45;;;25.30;44.90;;;;;;5034604;28;20208;-88
2021/09/08 09:49:59;;;;;;;9.93;9.13;;;25.60;44.70;;;;;;5036968;28;20196;-88
2021/09/08 09:52:25;;;;;;;11.75;10.20;;;25.70;43.80;;;;;;5036996;28;20208;-86
2021/09/08 09:54:52;;;;;;;9.70;8.88;;;25.70;43.80;;;;;;5030114;28;20235;-87
2021/09/08 09:57:18;;;;;;;10.13;9.13;;;25.80;43.40;;;;;;5049753;28;20197;-87
2021/09/08 09:59:45;;;;;;;12.02;9.88;;;25.90;43.20;;;;;;5050516;28;20342;-87
2021/09/08 10:02:11;;;;;;;11.15;10.15;;;26.10;43.70;;;;;;5045666;28;20195;-88
2021/09/08 10:04:37;;;;;;;10.68;9.50;;;26.10;43.80;;;;;;5049251;28;20257;-88
2021/09/08 10:07:06;;;;;;;10.52;9.48;;;26.30;43.10;;;;;;5019798;28;20220;-87
2021/09/08 10:09:35;;;;;;;9.48;8.68;;;26.40;42.70;;;;;;5034485;28;20196;-88
2021/09/08 10:12:03;;;;;;;10.40;9.48;;;26.60;41.90;;;;;;5034508;28;20283;-87
2021/09/08 10:14:31;;;;;;;10.70;9.80;;;26.70;42.10;;;;;;5014265;28;20199;-87
2021/09/08 10:17:02;;;;;;;10.07;9.25;;;26.80;42.30;;;;;;5035284;28;20197;-87
2021/09/08 10:19:28;;;;;;;10.30;9.32;;;26.90;40.80;;;;;;5029846;28;20318;-87
2021/09/08 10:22:06;;;;;;;10.38;9.35;;;27.00;41.00;;;;;;5024123;28;20185;-87
2021/09/08 10:24:32;;;;;;;10.73;9.70;;;27.00;40.50;;;;;;5028496;28;20203;-87
2021/09/08 10:26:58;;;;;;;11.15;9.48;;;27.10;41.70;;;;;;5032914;28;20207;-87
2021/09/08 10:29:28;;;;;;;10.82;9.82;;;27.50;40.90;;;;;;5049785;28;20196;-87
2021/09/08 10:31:57;;;;;;;10.25;9.18;;;27.40;40.00;;;;;;5050493;28;20185;-87
2021/09/08 10:34:24;;;;;;;10.80;9.90;;;27.30;40.70;;;;;;5052185;28;20235;-87
2021/09/08 10:36:50;;;;;;;10.98;9.98;;;27.20;42.00;;;;;;5051673;28;20213;-87
2021/09/08 10:39:19;;;;;;;11.60;9.63;;;27.40;41.10;;;;;;5043020;28;20727;-87
2021/09/08 10:41:51;;;;;;;10.55;9.50;;;27.70;40.60;;;;;;5064133;28;20236;-88
2021/09/08 10:44:45;;;;;;;11.55;10.48;;;27.70;39.30;;;;;;5051167;28;20191;-87
2021/09/08 10:47:12;;;;;;;11.20;10.10;;;27.90;38.80;;;;;;5049974;28;20200;-87
2021/09/08 10:49:41;;;;;;;10.43;9.43;;;27.80;38.80;;;;;;5049578;28;20177;-88
2021/09/08 10:52:08;;;;;;;10.75;9.85;;;27.80;39.50;;;;;;5067653;28;20244;-88
2021/09/08 10:54:54;;;;;;;10.35;9.40;;;27.80;40.00;;;;;;5050326;28;20390;-88
2021/09/08 10:57:46;;;;;;;10.10;9.30;;;28.10;39.50;;;;;;5031131;28;20288;-88
2021/09/08 11:00:19;;;;;;;10.60;9.70;;;28.30;39.70;;;;;;5028104;28;20213;-87
2021/09/08 11:02:45;;;;;;;13.32;9.77;;;28.40;39.40;;;;;;5033455;28;20196;-88
2021/09/08 11:05:12;;;;;;;11.27;10.13;;;28.50;39.20;;;;;;5038408;28;20209;-87
2021/09/08 11:07:45;;;;;;;9.60;8.80;;;28.70;38.20;;;;;;5030459;28;20283;-88
2021/09/08 11:10:13;;;;;;;10.65;9.55;;;28.70;38.60;;;;;;5030206;28;20918;-87
2021/09/08 11:12:47;;;;;;;10.38;9.52;;;28.70;38.50;;;;;;5049990;28;20197;-88
2021/09/08 11:15:13;;;;;;;10.73;9.68;;;28.70;37.60;;;;;;5043060;28;20201;-89
2021/09/08 11:17:39;;;;;;;11.10;9.98;;;29.10;38.40;;;;;;5048447;28;20180;-88
2021/09/08 11:20:07;;;;;;;10.30;9.40;;;29.20;37.90;;;;;;5049296;28;20200;-88
2021/09/08 11:22:33;;;;;;;10.48;9.65;;;29.50;37.30;;;;;;5049438;28;20236;-88
2021/09/08 11:25:06;;;;;;;12.40;9.20;;;29.70;37.00;;;;;;5048819;28;20189;-90
2021/09/08 11:27:32;;;;;;;10.82;9.73;;;29.90;36.60;;;;;;5041454;28;20183;-88
2021/09/08 11:30:09;;;;;;;11.23;10.23;;;30.00;36.10;;;;;;5029602;28;20208;-89
2021/09/08 11:33:09;;;;;;;10.52;9.52;;;30.10;36.70;;;;;;5023617;28;20680;-88
2021/09/08 11:35:46;;;;;;;10.50;9.60;;;29.80;35.90;;;;;;5015919;28;20224;-87
2021/09/08 11:38:16;;;;;;;15.43;10.13;;;29.90;35.30;;;;;;5048403;28;20697;-90
2021/09/08 11:40:51;;;;;;;10.85;9.75;;;29.70;36.10;;;;;;5033827;28;20342;-90
2021/09/08 11:43:51;;;;;;;10.32;9.30;;;29.80;36.60;;;;;;5031665;28;20234;-87
2021/09/08 11:46:22;;;;;;;10.15;9.25;;;30.20;35.50;;;;;;5021224;28;20226;-86
2021/09/08 11:48:53;;;;;;;10.48;9.57;;;30.20;34.80;;;;;;5031328;28;20243;-90
2021/09/08 11:51:21;;;;;;;11.07;10.07;;;30.10;34.40;;;;;;5027994;28;20324;-88
2021/09/08 11:53:49;;;;;;;9.77;8.93;;;30.50;34.70;;;;;;5037599;28;20242;-87
2021/09/08 11:56:18;;;;;;;9.65;8.75;;;30.50;33.80;;;;;;5041353;28;20212;-89
2021/09/08 11:58:50;;;;;;;10.10;9.02;;;30.80;32.30;;;;;;5040689;28;20203;-89
2021/09/08 12:01:16;;;;;;;9.57;8.57;;;30.70;32.00;;;;;;5037702;28;20189;-89
2021/09/08 12:03:44;;;;;;;10.80;9.93;;;31.10;31.30;;;;;;5039609;28;20193;-88
2021/09/08 12:06:17;;;;;;;10.48;9.63;;;31.20;34.00;;;;;;5039947;28;20205;-89
2021/09/08 12:08:52;;;;;;;10.13;9.32;;;31.40;32.70;;;;;;5039229;28;20188;-88
2021/09/08 12:11:41;;;;;;;10.15;9.25;;;31.60;32.80;;;;;;5036380;28;20278;-89
2021/09/08 12:14:27;;;;;;;10.18;9.40;;;31.20;32.30;;;;;;5035230;28;20189;-89
2021/09/08 12:17:15;;;;;;;11.07;10.13;;;31.10;33.20;;;;;;5055367;28;20292;-88
2021/09/08 12:19:54;;;;;;;11.55;9.98;;;31.50;32.90;;;;;;5035776;28;20235;-88
2021/09/08 12:22:37;;;;;;;10.65;9.85;;;31.80;32.40;;;;;;5035742;28;20224;-88
2021/09/08 12:25:11;;;;;;;10.20;9.20;;;31.90;32.40;;;;;;5036581;28;20208;-89
2021/09/08 12:27:42;;;;;;;11.00;9.80;;;31.50;33.50;;;;;;5037048;28;20224;-89
2021/09/08 12:30:23;;;;;;;11.13;10.23;;;31.80;32.60;;;;;;5041640;28;20209;-88
2021/09/08 12:32:59;;;;;;;10.25;9.30;;;31.90;32.90;;;;;;5037243;28;20193;-89
2021/09/08 12:35:41;;;;;;;10.30;9.13;;;31.80;32.50;;;;;;5030025;28;20700;-89